FIT weather

Fitchburg Municipal Airport
Fitchburg, Massachusetts, United States

Public forecast

Using degrees Fahrenheit for public forecast. Weather courtesy of forecast.io.

METAR (pilot weather report)

Retrieved 2019/05/26 23:52 UTC (2 hours ago):

KFIT 262352Z AUTO 28004KT 10SM CLR 25/11 A2979 RMK AO2 SLP088 T02500111 10300 20244 53002

TAF (pilot weather forecast)

Forecast is more than 12 hours old.

Closest forecast is Worcester Regional Airport, 18.0 nm (33.3 km) SSW. Retrieved 2019/05/26 00:22 UTC (1 day ago):

TAF KORH 262320Z 2700/2724 28008KT P6SM BKN200 FM270100 29008KT P6SM SCT200 FM270400 33007KT P6SM SCT250 FM271200 36007KT P6SM FEW250 FM271800 33007KT P6SM FEW250 FM272200 33006KT P6SM SCT050